createdAt,value
2022-09-18T00:00:48.532Z,5.40
2022-09-18T00:03:52.118Z,5.63
2022-09-18T00:06:54.966Z,5.83
2022-09-18T00:09:57.883Z,5.10
2022-09-18T00:13:02.214Z,5.97
2022-09-18T00:16:05.847Z,5.83
2022-09-18T00:19:09.070Z,5.70
2022-09-18T00:22:11.890Z,7.33
2022-09-18T00:25:14.894Z,7.33
2022-09-18T00:28:19.109Z,6.33
2022-09-18T00:31:25.562Z,6.13
2022-09-18T00:34:28.744Z,4.90
2022-09-18T00:37:31.604Z,4.27
2022-09-18T00:40:34.517Z,4.30
2022-09-18T00:43:39.165Z,3.97
2022-09-18T00:46:43.469Z,4.93
2022-09-18T00:49:49.952Z,4.90
2022-09-18T00:52:58.808Z,3.80
2022-09-18T00:56:04.521Z,3.30
2022-09-18T00:59:09.711Z,3.50
2022-09-18T01:02:13.348Z,3.80
2022-09-18T01:05:20.033Z,3.77
2022-09-18T01:08:41.908Z,3.47
2022-09-18T01:11:52.356Z,3.73
2022-09-18T01:15:04.931Z,3.63
2022-09-18T01:18:17.136Z,3.07
2022-09-18T01:21:27.007Z,3.10
2022-09-18T01:24:46.952Z,3.83
2022-09-18T01:28:12.631Z,3.13
2022-09-18T01:31:20.634Z,3.00
2022-09-18T01:34:29.173Z,2.20
2022-09-18T01:37:36.950Z,2.80
2022-09-18T01:40:43.681Z,2.70
2022-09-18T01:43:53.944Z,2.60
2022-09-18T01:46:59.048Z,2.87
2022-09-18T01:50:03.766Z,2.27
2022-09-18T01:53:11.806Z,1.90
2022-09-18T01:56:19.773Z,2.20
2022-09-18T01:59:28.622Z,2.00
2022-09-18T02:02:36.035Z,2.10
2022-09-18T02:05:42.566Z,2.30
2022-09-18T02:08:48.877Z,2.13
2022-09-18T02:11:55.318Z,2.50
2022-09-18T02:15:05.952Z,2.67
2022-09-18T02:18:13.001Z,2.60
2022-09-18T02:21:19.487Z,3.13
2022-09-18T02:24:27.608Z,3.53
2022-09-18T02:27:33.041Z,3.90
2022-09-18T02:30:39.445Z,3.70
2022-09-18T02:33:42.296Z,3.20
2022-09-18T02:37:05.922Z,3.37
2022-09-18T02:40:20.732Z,3.80
2022-09-18T02:43:38.364Z,3.47
2022-09-18T02:46:52.964Z,3.93
2022-09-18T02:50:03.652Z,3.90
2022-09-18T02:53:11.316Z,3.33
2022-09-18T02:56:22.648Z,3.63
2022-09-18T02:59:29.940Z,3.30
2022-09-18T03:02:34.348Z,3.77
2022-09-18T03:05:37.257Z,3.87
2022-09-18T03:08:40.457Z,3.60
2022-09-18T03:11:43.324Z,3.73
2022-09-18T03:14:46.123Z,3.60
2022-09-18T03:17:50.338Z,4.30
2022-09-18T03:20:53.158Z,3.57
2022-09-18T03:23:56.177Z,3.70
2022-09-18T03:26:59.237Z,3.60
2022-09-18T03:30:01.997Z,3.90
2022-09-18T03:36:33.091Z,3.83
2022-09-18T03:39:36.002Z,4.23
2022-09-18T03:42:38.824Z,3.83
2022-09-18T03:45:41.667Z,4.20
2022-09-18T03:48:45.875Z,4.77
2022-09-18T03:51:48.848Z,5.17
2022-09-18T03:54:51.757Z,5.10
2022-09-18T03:57:54.584Z,4.57
2022-09-18T04:00:57.455Z,4.83
2022-09-18T04:04:01.680Z,4.97
2022-09-18T04:07:04.554Z,5.07
2022-09-18T04:10:09.129Z,4.70
2022-09-18T04:13:12.028Z,4.97
2022-09-18T04:16:14.942Z,4.90
2022-09-18T04:19:19.223Z,5.27
2022-09-18T04:22:22.100Z,5.30
2022-09-18T04:25:24.957Z,5.03
2022-09-18T04:28:27.784Z,4.97
2022-09-18T04:31:30.756Z,5.23
2022-09-18T04:34:35.041Z,5.70
2022-09-18T04:37:38.023Z,5.30
2022-09-18T04:40:40.947Z,4.90
2022-09-18T04:43:44.030Z,4.77
2022-09-18T04:46:46.927Z,5.43
2022-09-18T04:49:52.526Z,4.83
2022-09-18T04:52:55.375Z,4.90
2022-09-18T04:55:58.360Z,4.93
2022-09-18T04:59:01.188Z,5.00
2022-09-18T05:02:04.249Z,4.87
2022-09-18T05:05:09.543Z,4.63
2022-09-18T05:08:12.402Z,4.30
2022-09-18T05:11:15.202Z,5.23
2022-09-18T05:14:18.033Z,4.93
2022-09-18T05:17:20.925Z,4.40
2022-09-18T05:20:25.160Z,4.17
2022-09-18T05:23:27.998Z,4.30
2022-09-18T05:26:31.388Z,4.40
2022-09-18T05:29:34.320Z,3.60
2022-09-18T05:32:37.171Z,4.30
2022-09-18T05:35:42.198Z,4.03
2022-09-18T05:38:45.607Z,4.33
2022-09-18T05:41:51.127Z,3.80
2022-09-18T05:44:54.719Z,4.13
2022-09-18T05:48:01.497Z,4.13
2022-09-18T05:51:06.159Z,4.47
2022-09-18T05:54:09.048Z,4.20
2022-09-18T05:57:11.945Z,3.67
2022-09-18T06:00:15.875Z,3.63
2022-09-18T06:03:19.009Z,3.70
2022-09-18T06:06:23.265Z,3.43
2022-09-18T06:09:26.356Z,3.90
2022-09-18T06:12:29.166Z,4.43
2022-09-18T06:15:32.403Z,3.63
2022-09-18T06:18:35.266Z,3.10
2022-09-18T06:21:39.480Z,3.57
2022-09-18T06:24:42.310Z,3.47
2022-09-18T06:27:45.135Z,3.73
2022-09-18T06:30:48.003Z,4.13
2022-09-18T06:33:50.891Z,4.03
2022-09-18T06:36:55.045Z,3.57
2022-09-18T06:39:57.873Z,3.87
2022-09-18T06:43:02.648Z,3.13
2022-09-18T06:46:07.942Z,3.53
2022-09-18T06:49:10.950Z,3.40
2022-09-18T06:52:15.191Z,4.07
2022-09-18T06:55:18.674Z,3.40
2022-09-18T06:58:21.797Z,4.50
2022-09-18T07:01:24.876Z,3.53
2022-09-18T07:04:27.775Z,3.77
2022-09-18T07:07:31.990Z,3.70
2022-09-18T07:10:34.788Z,4.43
2022-09-18T07:13:38.276Z,3.70
2022-09-18T07:16:41.243Z,3.80
2022-09-18T07:19:44.125Z,3.50
2022-09-18T07:22:53.630Z,4.10
2022-09-18T07:25:56.555Z,3.73
2022-09-18T07:28:59.348Z,3.67
2022-09-18T07:32:02.130Z,3.37
2022-09-18T07:35:06.512Z,3.80
2022-09-18T07:38:11.385Z,3.30
2022-09-18T07:41:14.201Z,3.20
2022-09-18T07:44:17.006Z,3.13
2022-09-18T07:47:19.811Z,3.10
2022-09-18T07:50:23.152Z,3.03
2022-09-18T07:53:29.385Z,3.73
2022-09-18T07:56:32.244Z,3.50
2022-09-18T07:59:35.076Z,3.17
2022-09-18T08:02:38.002Z,3.10
2022-09-18T08:05:41.819Z,3.60
2022-09-18T08:08:46.909Z,4.47
2022-09-18T08:11:52.842Z,3.33
2022-09-18T08:14:55.674Z,3.07
2022-09-18T08:17:58.949Z,3.40
2022-09-18T08:21:01.770Z,3.37
2022-09-18T08:24:06.330Z,3.47
2022-09-18T08:27:09.175Z,3.30
2022-09-18T08:30:14.531Z,3.10
2022-09-18T08:33:17.392Z,2.90
2022-09-18T08:36:20.215Z,3.07
2022-09-18T08:39:24.524Z,3.13
2022-09-18T08:42:35.856Z,3.50
2022-09-18T08:45:52.657Z,3.67
2022-09-18T08:49:06.393Z,3.60
2022-09-18T08:52:15.108Z,3.43
2022-09-18T08:55:27.363Z,2.87
2022-09-18T08:58:35.338Z,3.17
2022-09-18T09:01:46.178Z,3.10
2022-09-18T09:04:49.352Z,3.50
2022-09-18T09:08:33.837Z,2.70
2022-09-18T09:11:47.053Z,2.73
2022-09-18T09:15:05.046Z,2.47
2022-09-18T09:18:17.832Z,3.10
2022-09-18T09:21:24.153Z,3.30
2022-09-18T09:24:32.714Z,2.83
2022-09-18T09:27:41.587Z,2.90
2022-09-18T09:30:48.026Z,2.40
2022-09-18T09:33:56.700Z,2.50
2022-09-18T09:37:04.886Z,2.67
2022-09-18T09:40:15.663Z,2.53
2022-09-18T09:43:28.515Z,2.60
2022-09-18T09:47:01.349Z,2.60
2022-09-18T09:50:13.754Z,3.33
2022-09-18T09:53:16.646Z,2.80
2022-09-18T09:56:25.675Z,2.50
2022-09-18T09:59:39.707Z,2.90
2022-09-18T10:03:01.461Z,2.83
2022-09-18T10:06:12.850Z,2.60
2022-09-18T10:09:22.639Z,2.70
2022-09-18T10:12:31.269Z,2.57
2022-09-18T10:15:39.557Z,2.57
2022-09-18T10:18:45.186Z,2.33
2022-09-18T10:21:50.323Z,3.37
2022-09-18T10:25:00.185Z,2.40
2022-09-18T10:28:03.180Z,2.33
2022-09-18T10:31:10.669Z,2.70
2022-09-18T10:34:33.406Z,2.33
2022-09-18T10:37:40.735Z,2.57
2022-09-18T10:40:43.809Z,2.43
2022-09-18T10:43:55.455Z,2.63
2022-09-18T10:47:07.334Z,2.43
2022-09-18T10:50:19.383Z,2.50
2022-09-18T10:53:29.723Z,2.83
2022-09-18T10:56:33.368Z,2.37
2022-09-18T10:59:36.630Z,2.23
2022-09-18T11:02:45.624Z,2.60
2022-09-18T11:05:52.624Z,2.53
2022-09-18T11:08:57.639Z,2.33
2022-09-18T11:12:00.888Z,2.50
2022-09-18T11:15:06.202Z,2.60
2022-09-18T11:18:16.249Z,2.70
2022-09-18T11:21:19.122Z,2.40
2022-09-18T11:24:27.435Z,2.73
2022-09-18T11:27:44.438Z,2.30
2022-09-18T11:30:57.486Z,2.07
2022-09-18T11:34:06.267Z,2.23
2022-09-18T11:37:12.513Z,2.30
2022-09-18T11:40:22.173Z,2.50
2022-09-18T11:43:27.652Z,2.30
2022-09-18T11:46:42.087Z,2.20
2022-09-18T11:49:49.972Z,2.30
2022-09-18T11:52:55.308Z,2.37
2022-09-18T11:56:03.815Z,2.43
2022-09-18T11:59:11.961Z,2.80
2022-09-18T12:02:21.961Z,2.73
2022-09-18T12:05:30.015Z,2.57
2022-09-18T12:08:47.123Z,2.80
2022-09-18T12:11:55.806Z,2.70
2022-09-18T12:15:04.405Z,2.30
2022-09-18T12:18:13.112Z,2.80
2022-09-18T12:21:21.144Z,2.80
2022-09-18T12:24:24.166Z,1.80
2022-09-18T12:27:35.576Z,2.00
2022-09-18T12:30:47.424Z,2.03
2022-09-18T12:33:57.168Z,2.23
2022-09-18T12:37:16.739Z,2.10
2022-09-18T12:40:38.165Z,1.73
2022-09-18T12:44:03.020Z,2.30
2022-09-18T12:47:27.727Z,2.03
2022-09-18T12:50:47.258Z,1.60
2022-09-18T12:54:06.242Z,2.10
2022-09-18T12:57:32.938Z,1.90
2022-09-18T13:00:39.088Z,2.07
2022-09-18T13:03:43.998Z,2.10
2022-09-18T13:06:53.297Z,2.37
2022-09-18T13:10:15.390Z,2.70
2022-09-18T13:13:23.662Z,2.57
2022-09-18T13:16:34.352Z,2.60
2022-09-18T13:19:43.981Z,2.67
2022-09-18T13:22:53.207Z,2.40
2022-09-18T13:25:59.402Z,2.30
2022-09-18T13:29:03.381Z,2.23
2022-09-18T13:32:06.409Z,2.23
2022-09-18T13:35:21.807Z,2.40
2022-09-18T13:38:27.809Z,2.00
2022-09-18T13:41:43.130Z,2.03
2022-09-18T13:44:51.093Z,2.03
2022-09-18T13:48:04.819Z,1.83
2022-09-18T13:51:11.921Z,1.80
2022-09-18T13:54:35.941Z,1.73
2022-09-18T13:57:41.264Z,1.73
2022-09-18T14:00:44.111Z,1.90
2022-09-18T14:03:47.092Z,1.80
2022-09-18T14:06:49.980Z,1.80
2022-09-18T14:09:54.928Z,2.20
2022-09-18T14:13:25.145Z,2.10
2022-09-18T14:16:41.331Z,1.80
2022-09-18T14:19:45.995Z,2.10
2022-09-18T14:22:49.052Z,1.80
2022-09-18T14:25:52.170Z,1.80
2022-09-18T14:28:57.008Z,2.07
2022-09-18T14:32:01.330Z,1.70
2022-09-18T14:35:29.219Z,2.07
2022-09-18T14:38:35.232Z,2.37
2022-09-18T14:41:39.250Z,2.60
2022-09-18T14:44:48.779Z,2.20
2022-09-18T14:47:51.756Z,2.10
2022-09-18T14:51:04.332Z,2.13
2022-09-18T14:54:21.423Z,1.73
2022-09-18T14:57:27.580Z,2.13
2022-09-18T15:00:34.482Z,2.20
2022-09-18T15:03:42.609Z,2.10
2022-09-18T15:06:47.375Z,2.67
2022-09-18T15:09:53.577Z,2.10
2022-09-18T15:12:58.694Z,2.27
2022-09-18T15:16:05.113Z,2.00
2022-09-18T15:19:18.246Z,2.20
2022-09-18T15:22:22.939Z,2.53
2022-09-18T15:25:29.641Z,2.03
2022-09-18T15:28:35.593Z,2.03
2022-09-18T15:31:39.964Z,2.00
2022-09-18T15:34:48.965Z,1.90
2022-09-18T15:37:54.426Z,2.07
2022-09-18T15:40:57.354Z,1.90
2022-09-18T15:44:00.629Z,2.20
2022-09-18T15:47:30.605Z,2.17
2022-09-18T15:50:41.080Z,1.97
2022-09-18T15:54:02.685Z,2.10
2022-09-18T15:57:05.832Z,1.90
2022-09-18T16:00:19.253Z,2.00
2022-09-18T16:03:24.001Z,2.03
2022-09-18T16:06:29.052Z,2.20
2022-09-18T16:09:41.328Z,2.20
2022-09-18T16:12:44.245Z,2.20
2022-09-18T16:15:48.301Z,2.20
2022-09-18T16:18:56.107Z,2.10
2022-09-18T16:22:07.896Z,2.33
2022-09-18T16:25:14.148Z,2.60
2022-09-18T16:28:25.203Z,2.50
2022-09-18T16:31:29.929Z,2.30
2022-09-18T16:34:34.141Z,2.53
2022-09-18T16:37:37.959Z,1.93
2022-09-18T16:40:43.520Z,2.40
2022-09-18T16:43:46.436Z,2.10
2022-09-18T16:46:52.267Z,2.40
2022-09-18T16:49:56.581Z,2.20
2022-09-18T16:53:01.653Z,2.13
2022-09-18T16:56:09.401Z,2.57
2022-09-18T16:59:12.593Z,2.47
2022-09-18T17:02:19.335Z,2.67
2022-09-18T17:05:23.552Z,2.30
2022-09-18T17:08:26.551Z,2.20
2022-09-18T17:11:29.431Z,2.70
2022-09-18T17:14:32.303Z,2.50
2022-09-18T17:17:35.145Z,2.40
2022-09-18T17:20:39.536Z,2.17
2022-09-18T17:23:42.433Z,2.40
2022-09-18T17:26:45.314Z,2.70
2022-09-18T17:29:48.199Z,2.60
2022-09-18T17:32:50.974Z,2.70
2022-09-18T17:35:55.156Z,2.60
2022-09-18T17:39:02.230Z,2.80
2022-09-18T17:42:05.676Z,2.90
2022-09-18T17:45:09.504Z,3.33
2022-09-18T17:48:12.324Z,3.03
2022-09-18T17:51:18.515Z,2.97
2022-09-18T17:54:21.555Z,2.80
2022-09-18T17:57:24.356Z,2.80
2022-09-18T18:00:27.460Z,3.70
2022-09-18T18:03:30.273Z,3.17
2022-09-18T18:06:35.239Z,2.87
2022-09-18T18:09:38.326Z,2.83
2022-09-18T18:12:41.197Z,2.73
2022-09-18T18:15:44.075Z,3.13
2022-09-18T18:18:46.893Z,2.70
2022-09-18T18:21:51.132Z,3.40
2022-09-18T18:24:53.926Z,2.50
2022-09-18T18:27:57.044Z,2.70
2022-09-18T18:31:05.801Z,3.17
2022-09-18T18:34:10.751Z,3.20
2022-09-18T18:37:15.205Z,2.83
2022-09-18T18:40:18.216Z,2.60
2022-09-18T18:43:23.081Z,2.37
2022-09-18T18:46:28.644Z,2.40
2022-09-18T18:49:32.873Z,2.50
2022-09-18T18:52:37.126Z,2.70
2022-09-18T18:55:39.947Z,3.10
2022-09-18T18:58:43.941Z,3.20
2022-09-18T19:01:47.355Z,3.20
2022-09-18T19:04:50.497Z,3.30
2022-09-18T19:07:54.730Z,3.13
2022-09-18T19:10:58.913Z,3.10
2022-09-18T19:14:01.860Z,2.80
2022-09-18T19:17:05.420Z,3.30
2022-09-18T19:20:08.851Z,3.40
2022-09-18T19:23:16.115Z,2.90
2022-09-18T19:26:19.885Z,3.37
2022-09-18T19:29:23.101Z,3.20
2022-09-18T19:32:25.926Z,3.07
2022-09-18T19:35:28.943Z,3.20
2022-09-18T19:38:36.889Z,3.00
2022-09-18T19:41:42.939Z,2.93
2022-09-18T19:44:48.136Z,3.37
2022-09-18T19:47:51.723Z,3.07
2022-09-18T19:50:54.752Z,3.00
2022-09-18T19:53:58.953Z,3.10
2022-09-18T19:57:01.772Z,3.13
2022-09-18T20:00:05.649Z,2.87
2022-09-18T20:03:08.997Z,3.30
2022-09-18T20:06:12.233Z,3.30
2022-09-18T20:09:16.416Z,3.00
2022-09-18T20:12:19.327Z,3.00
2022-09-18T20:15:22.165Z,3.20
2022-09-18T20:18:24.976Z,2.77
2022-09-18T20:21:27.892Z,3.23
2022-09-18T20:24:33.119Z,3.00
2022-09-18T20:27:38.390Z,2.90
2022-09-18T20:30:41.201Z,2.70
2022-09-18T20:33:44.597Z,2.87
2022-09-18T20:36:49.494Z,2.93
2022-09-18T20:39:54.258Z,2.90
2022-09-18T20:42:57.213Z,3.10
2022-09-18T20:46:01.228Z,3.20
2022-09-18T20:49:04.240Z,3.60
2022-09-18T20:52:10.286Z,3.07
2022-09-18T20:55:18.190Z,2.90
2022-09-18T20:58:21.051Z,3.00
2022-09-18T21:01:25.544Z,2.93
2022-09-18T21:04:29.100Z,3.07
2022-09-18T21:07:32.315Z,3.10
2022-09-18T21:10:46.535Z,3.23
2022-09-18T21:13:49.827Z,3.40
2022-09-18T21:16:52.776Z,3.77
2022-09-18T21:19:55.887Z,3.43
2022-09-18T21:23:16.207Z,3.23
2022-09-18T21:26:20.832Z,3.83
2022-09-18T21:29:26.143Z,3.70
2022-09-18T21:32:30.785Z,4.00
2022-09-18T21:35:34.297Z,3.93
2022-09-18T21:38:37.756Z,4.00
2022-09-18T21:41:46.225Z,3.70
2022-09-18T21:44:49.304Z,4.30
2022-09-18T21:47:52.198Z,3.40
2022-09-18T21:50:55.094Z,3.50
2022-09-18T21:53:59.044Z,3.83
2022-09-18T21:57:03.271Z,3.87
2022-09-18T22:00:09.502Z,3.90
2022-09-18T22:03:13.191Z,3.40
2022-09-18T22:06:16.022Z,3.60
2022-09-18T22:09:21.230Z,3.90
2022-09-18T22:12:25.405Z,3.60
2022-09-18T22:15:28.602Z,3.50
2022-09-18T22:18:31.355Z,3.10
2022-09-18T22:21:37.952Z,3.37
2022-09-18T22:24:40.993Z,3.47
2022-09-18T22:27:45.226Z,3.53
2022-09-18T22:30:48.100Z,3.20
2022-09-18T22:33:54.697Z,3.40
2022-09-18T22:36:58.688Z,3.47
2022-09-18T22:40:01.574Z,3.20
2022-09-18T22:43:05.813Z,3.10
2022-09-18T22:46:11.095Z,3.63
2022-09-18T22:49:15.490Z,3.13
2022-09-18T22:52:18.644Z,3.33
2022-09-18T22:55:21.679Z,3.30
2022-09-18T22:58:25.925Z,3.50
2022-09-18T23:01:32.193Z,3.37
2022-09-18T23:04:36.733Z,3.70
2022-09-18T23:07:39.588Z,3.90
2022-09-18T23:10:42.447Z,3.77
2022-09-18T23:13:51.335Z,3.17
2022-09-18T23:16:54.525Z,3.50
2022-09-18T23:19:57.396Z,3.63
2022-09-18T23:23:00.199Z,3.67
2022-09-18T23:26:05.296Z,3.40
2022-09-18T23:29:12.708Z,3.50
2022-09-18T23:32:15.661Z,3.97
2022-09-18T23:35:18.497Z,3.80
2022-09-18T23:38:21.360Z,3.77
2022-09-18T23:41:24.525Z,3.77
2022-09-18T23:44:31.039Z,4.37
2022-09-18T23:47:37.149Z,4.10
2022-09-18T23:50:43.178Z,3.97
2022-09-18T23:53:46.009Z,4.73
2022-09-18T23:56:49.327Z,4.80
2022-09-18T23:59:54.081Z,4.27
